Map

Track Data

SID SEASON NUMBER BASIN SUBBASIN NAME ISO_TIME NATURE LAT LON WMO_WIND WMO_PRES WMO_AGENCY TRACK_TYPE DIST2LAND LANDFALL IFLAG USA_AGENCY USA_ATCF_ID USA_LAT USA_LON USA_RECORD USA_STATUS USA_WIND USA_PRES USA_SSHS USA_R34_NE USA_R34_SE USA_R34_SW USA_R34_NW USA_R50_NE USA_R50_SE USA_R50_SW USA_R50_NW USA_R64_NE USA_R64_SE USA_R64_SW USA_R64_NW USA_POCI USA_ROCI USA_RMW USA_EYE TOKYO_LAT TOKYO_LON TOKYO_GRADE TOKYO_WIND TOKYO_PRES TOKYO_R50_DIR TOKYO_R50_LONG TOKYO_R50_SHORT TOKYO_R30_DIR TOKYO_R30_LONG TOKYO_R30_SHORT TOKYO_LAND CMA_LAT CMA_LON CMA_CAT CMA_WIND CMA_PRES HKO_LAT HKO_LON HKO_CAT HKO_WIND HKO_PRES NEWDELHI_LAT NEWDELHI_LON NEWDELHI_GRADE NEWDELHI_WIND NEWDELHI_PRES NEWDELHI_CI NEWDELHI_DP NEWDELHI_POCI REUNION_LAT REUNION_LON REUNION_TYPE REUNION_WIND REUNION_PRES REUNION_TNUM REUNION_CI REUNION_RMW REUNION_R34_NE REUNION_R34_SE REUNION_R34_SW REUNION_R34_NW REUNION_R50_NE REUNION_R50_SE REUNION_R50_SW REUNION_R50_NW REUNION_R64_NE REUNION_R64_SE REUNION_R64_SW REUNION_R64_NW BOM_LAT BOM_LON BOM_TYPE BOM_WIND BOM_PRES BOM_TNUM BOM_CI BOM_RMW BOM_R34_NE BOM_R34_SE BOM_R34_SW BOM_R34_NW BOM_R50_NE BOM_R50_SE BOM_R50_SW BOM_R50_NW BOM_R64_NE BOM_R64_SE BOM_R64_SW BOM_R64_NW BOM_ROCI BOM_POCI BOM_EYE BOM_POS_METHOD BOM_PRES_METHOD NADI_LAT NADI_LON NADI_CAT NADI_WIND NADI_PRES WELLINGTON_LAT WELLINGTON_LON WELLINGTON_WIND WELLINGTON_PRES DS824_LAT DS824_LON DS824_STAGE DS824_WIND DS824_PRES TD9636_LAT TD9636_LON TD9636_STAGE TD9636_WIND TD9636_PRES TD9635_LAT TD9635_LON TD9635_WIND TD9635_PRES TD9635_ROCI NEUMANN_LAT NEUMANN_LON NEUMANN_CLASS NEUMANN_WIND NEUMANN_PRES MLC_LAT MLC_LON MLC_CLASS MLC_WIND MLC_PRES USA_GUST BOM_GUST BOM_GUST_PER REUNION_GUST REUNION_GUST_PER USA_SEAHGT USA_SEARAD_NE USA_SEARAD_SE USA_SEARAD_SW USA_SEARAD_NW STORM_SPEED STORM_DIR
1861021S13086 1861 3 SI MM NOT_NAMED 1861-01-21 06:00:00 NR -13.1000 86.1000 main 1902 1894 _____O________ -1 -13.1000 86.1000 99 9.90000 2 83
1861021S13086 1861 3 SI MM NOT_NAMED 1861-01-21 09:00:00 NR -13.0888 86.1889 main 1894 1886 _____P________ -1 -13.0888 86.1889 99 2 83
1861021S13086 1861 3 SI MM NOT_NAMED 1861-01-21 12:00:00 NR -13.0810 86.2658 main 1886 1886 _____P________ -1 -13.0810 86.2658 99 1 86
1861021S13086 1861 3 SI MM NOT_NAMED 1861-01-21 15:00:00 NR -13.0801 86.3186 main 1886 1886 _____P________ -1 -13.0801 86.3186 99 1 97
1861021S13086 1861 3 SI MM NOT_NAMED 1861-01-21 18:00:00 NR -13.0895 86.3353 main 1886 1886 _____P________ -1 -13.0895 86.3353 99 0 214
1861021S13086 1861 3 SI MM NOT_NAMED 1861-01-21 21:00:00 NR -13.1128 86.3038 main 1886 1886 _____P________ -1 -13.1128 86.3038 99 1 242
1861021S13086 1861 3 SI MM NOT_NAMED 1861-01-22 00:00:00 NR -13.1535 86.2122 main 1901 1901 _____P________ -1 -13.1535 86.2122 99 3 248
1861021S13086 1861 3 SI MM NOT_NAMED 1861-01-22 03:00:00 NR -13.2147 86.0484 main 1918 1918 _____P________ -1 -13.2147 86.0484 99 4 250
1861021S13086 1861 3 SI MM NOT_NAMED 1861-01-22 06:00:00 NR -13.3000 85.8000 main 1941 1941 _____O________ -1 -13.3000 85.8000 99 9.90000 6 251
1861021S13086 1861 3 SI MM NOT_NAMED 1861-01-22 09:00:00 NR -13.4110 85.4604 main 1973 1973 _____P________ -1 -13.4110 85.4604 99 8 252
1861021S13086 1861 3 SI MM NOT_NAMED 1861-01-22 12:00:00 NR -13.5438 85.0444 main 2022 2022 _____P________ -1 -13.5438 85.0444 99 9 252
1861021S13086 1861 3 SI MM NOT_NAMED 1861-01-22 15:00:00 NR -13.6928 84.5725 main 2069 2069 _____P________ -1 -13.6928 84.5725 99 10 252
1861021S13086 1861 3 SI MM NOT_NAMED 1861-01-22 18:00:00 NR -13.8528 84.0655 main 2126 2126 _____P________ -1 -13.8528 84.0655 99 11 252
1861021S13086 1861 3 SI MM NOT_NAMED 1861-01-22 21:00:00 NR -14.0184 83.5438 main 2183 2183 _____P________ -1 -14.0184 83.5438 99 11 252
1861021S13086 1861 3 SI MM NOT_NAMED 1861-01-23 00:00:00 NR -14.1847 83.0285 main 2240 2240 _____P________ -1 -14.1847 83.0285 99 10 251
1861021S13086 1861 3 SI MM NOT_NAMED 1861-01-23 03:00:00 NR -14.3468 82.5402 main 2272 2272 _____P________ -1 -14.3468 82.5402 99 10 251
1861021S13086 1861 3 SI MM NOT_NAMED 1861-01-23 06:00:00 NR -14.5000 82.1000 main 2291 2290 _____O________ -1 -14.5000 82.1000 99 9.90000 7 250
1861021S13086 1861 3 SI MM NOT_NAMED 1861-01-23 09:00:00 NR -14.5938 81.8249 main 2300 2299 _____P________ -1 -14.5938 81.8249 99 5 250
1861021S13086 1861 3 SI MM NOT_NAMED 1861-01-23 12:00:00 NR -14.6780 81.5950 main 2310 2309 _____P________ -1 -14.6780 81.5950 99 4 248
1861021S13086 1861 3 SI MM NOT_NAMED 1861-01-23 15:00:00 NR -14.7600 81.3949 main 2320 2319 _____P________ -1 -14.7600 81.3949 99 4 246
1861021S13086 1861 3 SI MM NOT_NAMED 1861-01-23 18:00:00 NR -14.8475 81.2092 main 2319 2319 _____P________ -1 -14.8475 81.2092 99 4 243
1861021S13086 1861 3 SI MM NOT_NAMED 1861-01-23 21:00:00 NR -14.9478 81.0224 main 2330 2330 _____P________ -1 -14.9478 81.0224 99 4 240
1861021S13086 1861 3 SI MM NOT_NAMED 1861-01-24 00:00:00 NR -15.0684 80.8191 main 2352 2352 _____P________ -1 -15.0684 80.8191 99 5 238
1861021S13086 1861 3 SI MM NOT_NAMED 1861-01-24 03:00:00 NR -15.2167 80.5835 main 2363 2363 _____P________ -1 -15.2167 80.5835 99 6 236
1861021S13086 1861 3 SI MM NOT_NAMED 1861-01-24 06:00:00 NR -15.4000 80.3000 main 2386 2386 _____O________ -1 -15.4000 80.3000 99 9.90000 7 238
1861021S13086 1861 3 SI MM NOT_NAMED 1861-01-24 09:00:00 NR -15.6034 79.9421 main 2394 2357 _____P________ -1 -15.6034 79.9421 99 9 239
1861021S13086 1861 3 SI MM NOT_NAMED 1861-01-24 12:00:00 NR -15.8361 79.5437 main 2347 2296 _____P________ -1 -15.8361 79.5437 99 9 238
1861021S13086 1861 3 SI MM NOT_NAMED 1861-01-24 15:00:00 NR -16.0991 79.1068 main 2296 2247 _____P________ -1 -16.0991 79.1068 99 10 238
1861021S13086 1861 3 SI MM NOT_NAMED 1861-01-24 18:00:00 NR -16.3932 78.6330 main 2236 2187 _____P________ -1 -16.3932 78.6330 99 11 237
1861021S13086 1861 3 SI MM NOT_NAMED 1861-01-24 21:00:00 NR -16.7194 78.1240 main 2176 2114 _____P________ -1 -16.7194 78.1240 99 12 236
1861021S13086 1861 3 SI MM NOT_NAMED 1861-01-25 00:00:00 NR -17.0786 77.5813 main 2114 2045 _____P________ -1 -17.0786 77.5813 99 13 235
1861021S13086 1861 3 SI MM NOT_NAMED 1861-01-25 03:00:00 NR -17.4718 77.0062 main 2042 1971 _____P________ -1 -17.4718 77.0062 99 14 234
1861021S13086 1861 3 SI MM NOT_NAMED 1861-01-25 06:00:00 NR -17.9000 76.4000 reunion main 1971 1888 _____O________ -1 -17.9000 76.4000 99 9.90000 16 233
1861021S13086 1861 3 SI MM NOT_NAMED 1861-01-25 09:00:00 NR -18.4210 75.6928 main 1888 1806 _____P________ -1 -18.4210 75.6928 99 18 232
1861021S13086 1861 3 SI MM NOT_NAMED 1861-01-25 12:00:00 NR -18.9879 74.9357 main 1795 1716 _____P________ -1 -18.9879 74.9357 99 19 232
1861021S13086 1861 3 SI MM NOT_NAMED 1861-01-25 15:00:00 NR -19.5796 74.1520 main 1715 1627 _____P________ -1 -19.5796 74.1520 99 19 231
1861021S13086 1861 3 SI MM NOT_NAMED 1861-01-25 18:00:00 NR -20.1756 73.3656 main 1626 1541 _____P________ -1 -20.1756 73.3656 99 19 231
1861021S13086 1861 3 SI MM NOT_NAMED 1861-01-25 21:00:00 NR -20.7553 72.6013 main 1541 1469 _____P________ -1 -20.7553 72.6013 99 18 231
1861021S13086 1861 3 SI MM NOT_NAMED 1861-01-26 00:00:00 NR -21.2988 71.8847 main 1469 1409 _____P________ -1 -21.2988 71.8847 99 16 231
1861021S13086 1861 3 SI MM NOT_NAMED 1861-01-26 03:00:00 NR -21.7867 71.2420 main 1399 1352 _____P________ -1 -21.7867 71.2420 99 14 231
1861021S13086 1861 3 SI MM NOT_NAMED 1861-01-26 06:00:00 NR -22.2000 70.7000 reunion main 1352 1325 _____O________ -1 -22.2000 70.7000 99 9.90000 11 231
1861021S13086 1861 3 SI MM NOT_NAMED 1861-01-26 09:00:00 NR -22.4789 70.3340 main 1316 1297 _____P________ -1 -22.4789 70.3340 99 8 230
1861021S13086 1861 3 SI MM NOT_NAMED 1861-01-26 12:00:00 NR -22.6908 70.0668 main 1299 1281 _____P________ -1 -22.6908 70.0668 99 6 229
1861021S13086 1861 3 SI MM NOT_NAMED 1861-01-26 15:00:00 NR -22.8474 69.8817 main 1281 1273 _____P________ -1 -22.8474 69.8817 99 4 226
1861021S13086 1861 3 SI MM NOT_NAMED 1861-01-26 18:00:00 NR -22.9602 69.7622 main 1275 1265 _____P________ -1 -22.9602 69.7622 99 3 223
1861021S13086 1861 3 SI MM NOT_NAMED 1861-01-26 21:00:00 NR -23.0407 69.6914 main 1265 1265 _____P________ -1 -23.0407 69.6914 99 2 216
1861021S13086 1861 3 SI MM NOT_NAMED 1861-01-27 00:00:00 NR -23.1001 69.6521 main 1267 1257 _____P________ -1 -23.1001 69.6521 99 1 210
1861021S13086 1861 3 SI MM NOT_NAMED 1861-01-27 03:00:00 NR -23.1495 69.6273 main 1257 1257 _____P________ -1 -23.1495 69.6273 99 1 197
1861021S13086 1861 3 SI MM NOT_NAMED 1861-01-27 06:00:00 NR -23.2000 69.6000 reunion main 1260 1260 _____O________ -1 -23.2000 69.6000 99 9.90000 1 212
1861021S13086 1861 3 SI MM NOT_NAMED 1861-01-27 09:00:00 NR -23.2608 69.5561 main 1262 1252 _____P________ -1 -23.2608 69.5561 99 2 216
1861021S13086 1861 3 SI MM NOT_NAMED 1861-01-27 12:00:00 NR -23.3323 69.4949 main 1252 1245 _____P________ -1 -23.3323 69.4949 99 2 220
1861021S13086 1861 3 SI MM NOT_NAMED 1861-01-27 15:00:00 NR -23.4130 69.4188 main 1245 1238 _____P________ -1 -23.4130 69.4188 99 2 222
1861021S13086 1861 3 SI MM NOT_NAMED 1861-01-27 18:00:00 NR -23.5014 69.3302 main 1238 1231 _____P________ -1 -23.5014 69.3302 99 3 223
1861021S13086 1861 3 SI MM NOT_NAMED 1861-01-27 21:00:00 NR -23.5958 69.2315 main 1231 1224 _____P________ -1 -23.5958 69.2315 99 3 225
1861021S13086 1861 3 SI MM NOT_NAMED 1861-01-28 00:00:00 NR -23.6947 69.1253 main 1224 1217 _____P________ -1 -23.6947 69.1253 99 3 225
1861021S13086 1861 3 SI MM NOT_NAMED 1861-01-28 03:00:00 NR -23.7967 69.0140 main 1217 1211 _____P________ -1 -23.7967 69.0140 99 3 225
1861021S13086 1861 3 SI MM NOT_NAMED 1861-01-28 06:00:00 NR -23.9000 68.9000 reunion main 1211 _____O________ -1 -23.9000 68.9000 99 9.90000 3 226

About IBTrACS Database

This database is a web-friendly format of International Best Track Archive for Climate Stewardship (IBTrACS), a global best track data archive curated by NOAA dating back to 1842.

Updated: 2021-12-08